Accueil
METAR-TAF:

METAR-TAF

Aéroports :

Lampang, Thaïlande

latitude: 18-17N, longitude: 099-31E, altitude: 241 m

Observation

Le bulletin a été fait il y a 43 minutes, à 01:00 UTC
Vent calme
Température 20°C
Humidité 78%
Pression 1021 hPa
Visibilité: 6000 m

METAR: VTCL 220100Z 00000KT 6000 NSC 20/16 Q1021 NOSIG

Heure: 08:43 (01:43 UTC)

Prévision

Le bulletin a été fait il y a 2 heures et 43 minutes, à 23:00 UTC
Prévision valable du 22 à 00 UTC au 22 à 24 UTC
Vent 5 kt de sud/sud-est
Visibilité: 8000 m

TAF: VTCL 212300Z 2200/2224 16005KT 8000 NSC

Observations et prévisions météorologiques de plus de 4000 aéroports (messages METAR et TAF).

Les stations disponibles sont représentées par des disques jaunes et rouges sur la carte.

Passer la souris dessus pour voir le nom de la station.

Cliquer dessus pour voir les observations et prévisions météorologiques.

Pour changer de carte: cliquez sur les boutons verts avec une croix noire pour zoomer, sur le bouton vert avec un tiret pour effectuer un zoom arrière, ou sur les flèches vertes pour les cartes adjacentes.


METAR-TAF: